sensor_id;sensor_type;location;lat;lon;timestamp;P1;durP1;ratioP1;P2;durP2;ratioP2
13347;SDS011;6743;49.934;9.138;2022-07-23T00:00:03;9.40;;;8.45;;
13347;SDS011;6743;49.934;9.138;2022-07-23T00:02:30;9.50;;;8.70;;
13347;SDS011;6743;49.934;9.138;2022-07-23T00:04:56;8.95;;;8.25;;
13347;SDS011;6743;49.934;9.138;2022-07-23T00:07:22;9.63;;;8.85;;
13347;SDS011;6743;49.934;9.138;2022-07-23T00:09:48;9.55;;;8.48;;
13347;SDS011;6743;49.934;9.138;2022-07-23T00:12:14;10.38;;;8.95;;
13347;SDS011;6743;49.934;9.138;2022-07-23T00:14:40;10.38;;;9.40;;
13347;SDS011;6743;49.934;9.138;2022-07-23T00:17:07;9.20;;;8.40;;
13347;SDS011;6743;49.934;9.138;2022-07-23T00:19:33;9.40;;;8.60;;
13347;SDS011;6743;49.934;9.138;2022-07-23T00:21:59;9.48;;;8.75;;
13347;SDS011;6743;49.934;9.138;2022-07-23T00:24:25;9.43;;;8.52;;
13347;SDS011;6743;49.934;9.138;2022-07-23T00:26:51;9.80;;;8.80;;
13347;SDS011;6743;49.934;9.138;2022-07-23T00:29:17;9.43;;;8.68;;
13347;SDS011;6743;49.934;9.138;2022-07-23T00:31:43;9.45;;;8.65;;
13347;SDS011;6743;49.934;9.138;2022-07-23T00:34:10;10.10;;;9.10;;
13347;SDS011;6743;49.934;9.138;2022-07-23T00:36:35;9.80;;;8.90;;
13347;SDS011;6743;49.934;9.138;2022-07-23T00:39:02;9.77;;;8.88;;
13347;SDS011;6743;49.934;9.138;2022-07-23T00:41:28;9.77;;;8.68;;
13347;SDS011;6743;49.934;9.138;2022-07-23T00:43:54;9.27;;;8.48;;
13347;SDS011;6743;49.934;9.138;2022-07-23T00:46:20;9.27;;;8.43;;
13347;SDS011;6743;49.934;9.138;2022-07-23T00:48:46;8.57;;;7.87;;
13347;SDS011;6743;49.934;9.138;2022-07-23T00:51:13;8.65;;;7.85;;
13347;SDS011;6743;49.934;9.138;2022-07-23T00:53:40;8.48;;;7.70;;
13347;SDS011;6743;49.934;9.138;2022-07-23T00:56:07;7.93;;;7.32;;
13347;SDS011;6743;49.934;9.138;2022-07-23T00:58:34;8.20;;;7.50;;
13347;SDS011;6743;49.934;9.138;2022-07-23T01:01:01;8.75;;;7.93;;
13347;SDS011;6743;49.934;9.138;2022-07-23T01:03:27;7.93;;;7.18;;
13347;SDS011;6743;49.934;9.138;2022-07-23T01:05:55;7.93;;;7.32;;
13347;SDS011;6743;49.934;9.138;2022-07-23T01:08:31;8.68;;;7.97;;
13347;SDS011;6743;49.934;9.138;2022-07-23T01:10:58;9.02;;;8.32;;
13347;SDS011;6743;49.934;9.138;2022-07-23T01:13:24;9.00;;;8.13;;
13347;SDS011;6743;49.934;9.138;2022-07-23T01:15:50;9.40;;;8.60;;
13347;SDS011;6743;49.934;9.138;2022-07-23T01:18:16;9.05;;;8.25;;
13347;SDS011;6743;49.934;9.138;2022-07-23T01:20:42;8.60;;;7.75;;
13347;SDS011;6743;49.934;9.138;2022-07-23T01:23:09;7.78;;;7.05;;
13347;SDS011;6743;49.934;9.138;2022-07-23T01:25:35;7.25;;;6.65;;
13347;SDS011;6743;49.934;9.138;2022-07-23T01:28:01;8.00;;;7.20;;
13347;SDS011;6743;49.934;9.138;2022-07-23T01:30:27;6.87;;;6.20;;
13347;SDS011;6743;49.934;9.138;2022-07-23T01:32:53;7.57;;;6.65;;
13347;SDS011;6743;49.934;9.138;2022-07-23T01:35:19;6.43;;;5.93;;
13347;SDS011;6743;49.934;9.138;2022-07-23T01:37:45;6.43;;;5.90;;
13347;SDS011;6743;49.934;9.138;2022-07-23T01:40:12;6.85;;;5.93;;
13347;SDS011;6743;49.934;9.138;2022-07-23T01:42:38;5.80;;;5.30;;
13347;SDS011;6743;49.934;9.138;2022-07-23T01:45:04;6.53;;;5.93;;
13347;SDS011;6743;49.934;9.138;2022-07-23T01:47:31;6.12;;;5.60;;
13347;SDS011;6743;49.934;9.138;2022-07-23T01:49:57;6.20;;;5.70;;
13347;SDS011;6743;49.934;9.138;2022-07-23T01:52:23;5.95;;;5.45;;
13347;SDS011;6743;49.934;9.138;2022-07-23T01:54:49;7.18;;;5.65;;
13347;SDS011;6743;49.934;9.138;2022-07-23T01:57:16;5.90;;;5.40;;
13347;SDS011;6743;49.934;9.138;2022-07-23T01:59:42;6.57;;;5.72;;
13347;SDS011;6743;49.934;9.138;2022-07-23T02:02:08;6.47;;;5.62;;
13347;SDS011;6743;49.934;9.138;2022-07-23T02:04:34;5.70;;;5.20;;
13347;SDS011;6743;49.934;9.138;2022-07-23T02:07:02;6.10;;;5.60;;
13347;SDS011;6743;49.934;9.138;2022-07-23T02:09:28;5.93;;;5.30;;
13347;SDS011;6743;49.934;9.138;2022-07-23T02:11:54;5.57;;;4.90;;
13347;SDS011;6743;49.934;9.138;2022-07-23T02:14:21;6.37;;;5.35;;
13347;SDS011;6743;49.934;9.138;2022-07-23T02:16:47;5.82;;;5.18;;
13347;SDS011;6743;49.934;9.138;2022-07-23T02:19:13;6.07;;;5.40;;
13347;SDS011;6743;49.934;9.138;2022-07-23T02:21:39;6.07;;;5.47;;
13347;SDS011;6743;49.934;9.138;2022-07-23T02:24:05;6.20;;;5.37;;
13347;SDS011;6743;49.934;9.138;2022-07-23T02:26:31;6.25;;;5.53;;
13347;SDS011;6743;49.934;9.138;2022-07-23T02:28:59;5.95;;;5.45;;
13347;SDS011;6743;49.934;9.138;2022-07-23T02:31:27;7.32;;;5.53;;
13347;SDS011;6743;49.934;9.138;2022-07-23T02:33:53;6.30;;;5.70;;
13347;SDS011;6743;49.934;9.138;2022-07-23T02:36:20;6.03;;;5.50;;
13347;SDS011;6743;49.934;9.138;2022-07-23T02:38:46;6.10;;;5.57;;
13347;SDS011;6743;49.934;9.138;2022-07-23T02:41:12;6.28;;;4.97;;
13347;SDS011;6743;49.934;9.138;2022-07-23T02:43:38;5.90;;;5.30;;
13347;SDS011;6743;49.934;9.138;2022-07-23T02:46:04;6.20;;;5.28;;
13347;SDS011;6743;49.934;9.138;2022-07-23T02:48:31;6.35;;;5.60;;
13347;SDS011;6743;49.934;9.138;2022-07-23T02:50:57;5.93;;;5.32;;
13347;SDS011;6743;49.934;9.138;2022-07-23T02:53:23;7.20;;;6.05;;
13347;SDS011;6743;49.934;9.138;2022-07-23T02:55:49;6.12;;;5.62;;
13347;SDS011;6743;49.934;9.138;2022-07-23T02:58:15;6.12;;;5.45;;
13347;SDS011;6743;49.934;9.138;2022-07-23T03:00:41;6.30;;;5.55;;
13347;SDS011;6743;49.934;9.138;2022-07-23T03:03:07;5.93;;;5.43;;
13347;SDS011;6743;49.934;9.138;2022-07-23T03:05:34;6.47;;;5.72;;
13347;SDS011;6743;49.934;9.138;2022-07-23T03:08:00;6.43;;;5.72;;
13347;SDS011;6743;49.934;9.138;2022-07-23T03:10:26;7.55;;;6.28;;
13347;SDS011;6743;49.934;9.138;2022-07-23T03:12:52;6.20;;;5.60;;
13347;SDS011;6743;49.934;9.138;2022-07-23T03:15:18;7.75;;;5.87;;
13347;SDS011;6743;49.934;9.138;2022-07-23T03:17:44;6.10;;;5.60;;
13347;SDS011;6743;49.934;9.138;2022-07-23T03:20:10;6.85;;;6.25;;
13347;SDS011;6743;49.934;9.138;2022-07-23T03:22:37;6.62;;;6.05;;
13347;SDS011;6743;49.934;9.138;2022-07-23T03:25:03;6.00;;;5.40;;
13347;SDS011;6743;49.934;9.138;2022-07-23T03:27:30;6.80;;;5.75;;
13347;SDS011;6743;49.934;9.138;2022-07-23T03:29:57;6.62;;;6.03;;
13347;SDS011;6743;49.934;9.138;2022-07-23T03:32:24;7.00;;;6.30;;
13347;SDS011;6743;49.934;9.138;2022-07-23T03:34:50;6.45;;;5.85;;
13347;SDS011;6743;49.934;9.138;2022-07-23T03:37:17;6.15;;;5.65;;
13347;SDS011;6743;49.934;9.138;2022-07-23T03:39:45;7.12;;;6.40;;
13347;SDS011;6743;49.934;9.138;2022-07-23T03:42:11;6.60;;;6.00;;
13347;SDS011;6743;49.934;9.138;2022-07-23T03:44:37;7.00;;;6.20;;
13347;SDS011;6743;49.934;9.138;2022-07-23T03:47:04;6.90;;;6.20;;
13347;SDS011;6743;49.934;9.138;2022-07-23T03:49:30;7.03;;;6.37;;
13347;SDS011;6743;49.934;9.138;2022-07-23T03:51:56;7.43;;;6.30;;
13347;SDS011;6743;49.934;9.138;2022-07-23T03:54:22;7.00;;;6.28;;
13347;SDS011;6743;49.934;9.138;2022-07-23T03:56:49;7.20;;;6.57;;
13347;SDS011;6743;49.934;9.138;2022-07-23T03:59:15;8.27;;;6.57;;
13347;SDS011;6743;49.934;9.138;2022-07-23T04:01:41;6.87;;;6.18;;
13347;SDS011;6743;49.934;9.138;2022-07-23T04:04:07;7.30;;;6.60;;
13347;SDS011;6743;49.934;9.138;2022-07-23T04:06:33;8.23;;;6.97;;
13347;SDS011;6743;49.934;9.138;2022-07-23T04:09:00;7.18;;;6.50;;
13347;SDS011;6743;49.934;9.138;2022-07-23T04:11:26;7.45;;;6.70;;
13347;SDS011;6743;49.934;9.138;2022-07-23T04:13:52;8.57;;;7.18;;
13347;SDS011;6743;49.934;9.138;2022-07-23T04:16:18;8.00;;;7.20;;
13347;SDS011;6743;49.934;9.138;2022-07-23T04:18:44;7.07;;;6.22;;
13347;SDS011;6743;49.934;9.138;2022-07-23T04:21:10;11.43;;;7.45;;
13347;SDS011;6743;49.934;9.138;2022-07-23T04:23:36;7.53;;;6.85;;
13347;SDS011;6743;49.934;9.138;2022-07-23T04:26:02;7.30;;;6.55;;
13347;SDS011;6743;49.934;9.138;2022-07-23T04:28:28;7.40;;;6.70;;
13347;SDS011;6743;49.934;9.138;2022-07-23T04:30:56;8.38;;;7.57;;
13347;SDS011;6743;49.934;9.138;2022-07-23T04:33:22;8.60;;;7.80;;
13347;SDS011;6743;49.934;9.138;2022-07-23T04:35:48;7.97;;;7.25;;
13347;SDS011;6743;49.934;9.138;2022-07-23T04:38:14;9.27;;;8.02;;
13347;SDS011;6743;49.934;9.138;2022-07-23T04:40:40;9.05;;;7.57;;
13347;SDS011;6743;49.934;9.138;2022-07-23T04:43:06;8.25;;;7.45;;
13347;SDS011;6743;49.934;9.138;2022-07-23T04:45:32;8.02;;;7.22;;
13347;SDS011;6743;49.934;9.138;2022-07-23T04:47:59;8.40;;;7.60;;
13347;SDS011;6743;49.934;9.138;2022-07-23T04:50:26;9.10;;;8.30;;
13347;SDS011;6743;49.934;9.138;2022-07-23T04:52:52;8.45;;;7.65;;
13347;SDS011;6743;49.934;9.138;2022-07-23T04:55:18;8.80;;;8.00;;
13347;SDS011;6743;49.934;9.138;2022-07-23T04:57:44;8.48;;;7.65;;
13347;SDS011;6743;49.934;9.138;2022-07-23T05:00:11;8.57;;;7.72;;
13347;SDS011;6743;49.934;9.138;2022-07-23T05:02:38;7.75;;;7.05;;
13347;SDS011;6743;49.934;9.138;2022-07-23T05:05:05;8.25;;;7.45;;
13347;SDS011;6743;49.934;9.138;2022-07-23T05:07:31;7.75;;;6.97;;
13347;SDS011;6743;49.934;9.138;2022-07-23T05:09:57;7.93;;;7.22;;
13347;SDS011;6743;49.934;9.138;2022-07-23T05:12:23;8.50;;;7.65;;
13347;SDS011;6743;49.934;9.138;2022-07-23T05:14:49;8.77;;;7.87;;
13347;SDS011;6743;49.934;9.138;2022-07-23T05:17:15;8.55;;;7.50;;
13347;SDS011;6743;49.934;9.138;2022-07-23T05:19:41;8.82;;;7.72;;
13347;SDS011;6743;49.934;9.138;2022-07-23T05:22:08;8.27;;;7.45;;
13347;SDS011;6743;49.934;9.138;2022-07-23T05:24:34;8.85;;;7.95;;
13347;SDS011;6743;49.934;9.138;2022-07-23T05:27:00;8.63;;;7.82;;
13347;SDS011;6743;49.934;9.138;2022-07-23T05:29:26;8.13;;;7.37;;
13347;SDS011;6743;49.934;9.138;2022-07-23T05:31:52;7.93;;;7.03;;
13347;SDS011;6743;49.934;9.138;2022-07-23T05:34:18;8.40;;;7.60;;
13347;SDS011;6743;49.934;9.138;2022-07-23T05:36:44;8.30;;;7.50;;
13347;SDS011;6743;49.934;9.138;2022-07-23T05:39:11;10.05;;;7.93;;
13347;SDS011;6743;49.934;9.138;2022-07-23T05:41:37;9.00;;;8.10;;
13347;SDS011;6743;49.934;9.138;2022-07-23T05:44:03;8.48;;;7.70;;
13347;SDS011;6743;49.934;9.138;2022-07-23T05:46:29;12.80;;;9.70;;
13347;SDS011;6743;49.934;9.138;2022-07-23T05:48:55;8.75;;;7.93;;
13347;SDS011;6743;49.934;9.138;2022-07-23T05:51:21;10.65;;;8.13;;
13347;SDS011;6743;49.934;9.138;2022-07-23T05:53:48;9.27;;;7.93;;
13347;SDS011;6743;49.934;9.138;2022-07-23T05:56:15;9.10;;;8.20;;
13347;SDS011;6743;49.934;9.138;2022-07-23T05:58:42;10.15;;;9.00;;
13347;SDS011;6743;49.934;9.138;2022-07-23T06:01:08;9.70;;;8.70;;
13347;SDS011;6743;49.934;9.138;2022-07-23T06:03:34;8.70;;;7.93;;
13347;SDS011;6743;49.934;9.138;2022-07-23T06:06:01;11.75;;;8.55;;
13347;SDS011;6743;49.934;9.138;2022-07-23T06:08:27;9.25;;;8.02;;
13347;SDS011;6743;49.934;9.138;2022-07-23T06:10:53;8.75;;;7.85;;
13347;SDS011;6743;49.934;9.138;2022-07-23T06:13:19;8.65;;;7.70;;
13347;SDS011;6743;49.934;9.138;2022-07-23T06:15:45;8.38;;;7.55;;
13347;SDS011;6743;49.934;9.138;2022-07-23T06:18:12;8.80;;;8.02;;
13347;SDS011;6743;49.934;9.138;2022-07-23T06:20:38;9.35;;;7.45;;
13347;SDS011;6743;49.934;9.138;2022-07-23T06:23:04;10.05;;;7.97;;
13347;SDS011;6743;49.934;9.138;2022-07-23T06:25:30;9.57;;;8.25;;
13347;SDS011;6743;49.934;9.138;2022-07-23T06:27:56;9.15;;;7.65;;
13347;SDS011;6743;49.934;9.138;2022-07-23T06:30:23;8.35;;;7.53;;
13347;SDS011;6743;49.934;9.138;2022-07-23T06:32:49;10.80;;;8.38;;
13347;SDS011;6743;49.934;9.138;2022-07-23T06:35:15;8.68;;;7.80;;
13347;SDS011;6743;49.934;9.138;2022-07-23T06:37:41;9.70;;;8.40;;
13347;SDS011;6743;49.934;9.138;2022-07-23T06:40:08;10.45;;;8.60;;
13347;SDS011;6743;49.934;9.138;2022-07-23T06:42:34;9.95;;;9.05;;
13347;SDS011;6743;49.934;9.138;2022-07-23T06:45:02;10.05;;;8.88;;
13347;SDS011;6743;49.934;9.138;2022-07-23T06:47:29;10.10;;;9.10;;
13347;SDS011;6743;49.934;9.138;2022-07-23T06:49:55;9.80;;;8.90;;
13347;SDS011;6743;49.934;9.138;2022-07-23T06:52:21;11.40;;;10.13;;
13347;SDS011;6743;49.934;9.138;2022-07-23T06:54:47;10.23;;;9.23;;
13347;SDS011;6743;49.934;9.138;2022-07-23T06:57:13;9.65;;;8.70;;
13347;SDS011;6743;49.934;9.138;2022-07-23T06:59:39;10.35;;;9.25;;
13347;SDS011;6743;49.934;9.138;2022-07-23T07:02:05;10.38;;;9.27;;
13347;SDS011;6743;49.934;9.138;2022-07-23T07:04:32;9.73;;;8.82;;
13347;SDS011;6743;49.934;9.138;2022-07-23T07:06:59;10.52;;;9.23;;
13347;SDS011;6743;49.934;9.138;2022-07-23T07:09:25;9.98;;;8.98;;
13347;SDS011;6743;49.934;9.138;2022-07-23T07:11:51;10.15;;;9.25;;
13347;SDS011;6743;49.934;9.138;2022-07-23T07:14:17;10.60;;;9.40;;
13347;SDS011;6743;49.934;9.138;2022-07-23T07:16:43;12.93;;;10.35;;
13347;SDS011;6743;49.934;9.138;2022-07-23T07:19:09;10.50;;;9.40;;
13347;SDS011;6743;49.934;9.138;2022-07-23T07:21:35;9.20;;;8.30;;
13347;SDS011;6743;49.934;9.138;2022-07-23T07:24:02;9.48;;;8.52;;
13347;SDS011;6743;49.934;9.138;2022-07-23T07:26:28;8.75;;;7.95;;
13347;SDS011;6743;49.934;9.138;2022-07-23T07:28:54;10.05;;;9.15;;
13347;SDS011;6743;49.934;9.138;2022-07-23T07:31:20;10.98;;;8.68;;
13347;SDS011;6743;49.934;9.138;2022-07-23T07:33:46;8.48;;;7.68;;
13347;SDS011;6743;49.934;9.138;2022-07-23T07:36:13;8.50;;;7.68;;
13347;SDS011;6743;49.934;9.138;2022-07-23T07:38:39;9.02;;;8.02;;
13347;SDS011;6743;49.934;9.138;2022-07-23T07:41:05;9.18;;;8.38;;
13347;SDS011;6743;49.934;9.138;2022-07-23T07:43:32;9.57;;;8.60;;
13347;SDS011;6743;49.934;9.138;2022-07-23T07:45:59;9.52;;;8.63;;
13347;SDS011;6743;49.934;9.138;2022-07-23T07:48:25;9.10;;;8.20;;
13347;SDS011;6743;49.934;9.138;2022-07-23T07:50:51;8.90;;;8.10;;
13347;SDS011;6743;49.934;9.138;2022-07-23T07:53:17;8.95;;;8.15;;
13347;SDS011;6743;49.934;9.138;2022-07-23T07:55:43;9.25;;;7.62;;
13347;SDS011;6743;49.934;9.138;2022-07-23T07:58:09;10.05;;;8.32;;
13347;SDS011;6743;49.934;9.138;2022-07-23T08:00:35;8.85;;;7.60;;
13347;SDS011;6743;49.934;9.138;2022-07-23T08:03:01;9.25;;;7.97;;
13347;SDS011;6743;49.934;9.138;2022-07-23T08:05:28;10.70;;;8.10;;
13347;SDS011;6743;49.934;9.138;2022-07-23T08:07:55;9.85;;;7.45;;
13347;SDS011;6743;49.934;9.138;2022-07-23T08:10:22;8.48;;;7.68;;
13347;SDS011;6743;49.934;9.138;2022-07-23T08:12:50;9.18;;;8.38;;
13347;SDS011;6743;49.934;9.138;2022-07-23T08:15:19;10.27;;;7.57;;
13347;SDS011;6743;49.934;9.138;2022-07-23T08:17:46;8.88;;;8.05;;
13347;SDS011;6743;49.934;9.138;2022-07-23T08:20:13;8.18;;;7.37;;
13347;SDS011;6743;49.934;9.138;2022-07-23T08:22:47;8.98;;;7.60;;
13347;SDS011;6743;49.934;9.138;2022-07-23T08:25:14;9.57;;;7.65;;
13347;SDS011;6743;49.934;9.138;2022-07-23T08:27:41;10.30;;;8.15;;
13347;SDS011;6743;49.934;9.138;2022-07-23T08:30:08;9.20;;;8.30;;
13347;SDS011;6743;49.934;9.138;2022-07-23T08:32:47;8.63;;;7.72;;
13347;SDS011;6743;49.934;9.138;2022-07-23T08:35:14;10.18;;;8.55;;
13347;SDS011;6743;49.934;9.138;2022-07-23T08:37:40;11.23;;;8.38;;
13347;SDS011;6743;49.934;9.138;2022-07-23T08:40:07;8.00;;;7.30;;
13347;SDS011;6743;49.934;9.138;2022-07-23T08:42:33;8.30;;;7.50;;
13347;SDS011;6743;49.934;9.138;2022-07-23T08:45:01;8.10;;;7.35;;
13347;SDS011;6743;49.934;9.138;2022-07-23T08:47:29;9.40;;;8.32;;
13347;SDS011;6743;49.934;9.138;2022-07-23T08:49:55;8.02;;;7.22;;
13347;SDS011;6743;49.934;9.138;2022-07-23T08:52:22;8.00;;;7.30;;
13347;SDS011;6743;49.934;9.138;2022-07-23T08:54:48;7.50;;;6.80;;
13347;SDS011;6743;49.934;9.138;2022-07-23T08:57:14;7.90;;;7.10;;
13347;SDS011;6743;49.934;9.138;2022-07-23T08:59:40;8.75;;;7.60;;
13347;SDS011;6743;49.934;9.138;2022-07-23T09:02:06;9.65;;;7.78;;
13347;SDS011;6743;49.934;9.138;2022-07-23T09:04:33;8.73;;;7.80;;
13347;SDS011;6743;49.934;9.138;2022-07-23T09:07:00;8.30;;;7.00;;
13347;SDS011;6743;49.934;9.138;2022-07-23T09:09:27;11.45;;;8.20;;
13347;SDS011;6743;49.934;9.138;2022-07-23T09:12:01;8.70;;;7.78;;
13347;SDS011;6743;49.934;9.138;2022-07-23T09:14:35;8.30;;;7.60;;
13347;SDS011;6743;49.934;9.138;2022-07-23T09:17:07;8.07;;;7.37;;
13347;SDS011;6743;49.934;9.138;2022-07-23T09:19:35;8.90;;;7.32;;
13347;SDS011;6743;49.934;9.138;2022-07-23T09:22:15;8.18;;;7.25;;
13347;SDS011;6743;49.934;9.138;2022-07-23T09:24:44;9.30;;;7.40;;
13347;SDS011;6743;49.934;9.138;2022-07-23T09:27:44;11.85;;;7.35;;
13347;SDS011;6743;49.934;9.138;2022-07-23T09:30:12;9.88;;;8.13;;
13347;SDS011;6743;49.934;9.138;2022-07-23T09:32:38;10.98;;;7.45;;
13347;SDS011;6743;49.934;9.138;2022-07-23T09:35:05;8.35;;;7.55;;
13347;SDS011;6743;49.934;9.138;2022-07-23T09:37:32;7.87;;;7.15;;
13347;SDS011;6743;49.934;9.138;2022-07-23T09:40:03;8.15;;;7.32;;
13347;SDS011;6743;49.934;9.138;2022-07-23T09:42:29;8.65;;;7.57;;
13347;SDS011;6743;49.934;9.138;2022-07-23T09:44:56;9.35;;;7.65;;
13347;SDS011;6743;49.934;9.138;2022-07-23T09:47:24;8.43;;;7.68;;
13347;SDS011;6743;49.934;9.138;2022-07-23T09:49:58;8.32;;;7.45;;
13347;SDS011;6743;49.934;9.138;2022-07-23T09:52:26;8.10;;;7.30;;
13347;SDS011;6743;49.934;9.138;2022-07-23T09:54:57;8.50;;;7.20;;
13347;SDS011;6743;49.934;9.138;2022-07-23T09:57:24;7.97;;;7.10;;
13347;SDS011;6743;49.934;9.138;2022-07-23T09:59:51;8.52;;;7.28;;
13347;SDS011;6743;49.934;9.138;2022-07-23T10:02:18;7.10;;;6.43;;
13347;SDS011;6743;49.934;9.138;2022-07-23T10:04:45;7.45;;;6.65;;
13347;SDS011;6743;49.934;9.138;2022-07-23T10:07:11;7.65;;;6.95;;
13347;SDS011;6743;49.934;9.138;2022-07-23T10:09:43;7.75;;;7.05;;
13347;SDS011;6743;49.934;9.138;2022-07-23T10:12:11;8.15;;;7.22;;
13347;SDS011;6743;49.934;9.138;2022-07-23T10:14:46;8.20;;;7.40;;
13347;SDS011;6743;49.934;9.138;2022-07-23T10:17:12;8.02;;;7.20;;
13347;SDS011;6743;49.934;9.138;2022-07-23T10:19:38;8.30;;;7.60;;
13347;SDS011;6743;49.934;9.138;2022-07-23T10:22:06;7.57;;;6.87;;
13347;SDS011;6743;49.934;9.138;2022-07-23T10:24:41;7.60;;;6.87;;
13347;SDS011;6743;49.934;9.138;2022-07-23T10:27:20;7.82;;;7.12;;
13347;SDS011;6743;49.934;9.138;2022-07-23T10:30:07;7.00;;;6.28;;
13347;SDS011;6743;49.934;9.138;2022-07-23T10:32:40;6.90;;;6.30;;
13347;SDS011;6743;49.934;9.138;2022-07-23T10:35:13;7.82;;;7.12;;
13347;SDS011;6743;49.934;9.138;2022-07-23T10:37:48;7.55;;;6.85;;
13347;SDS011;6743;49.934;9.138;2022-07-23T10:40:17;7.28;;;6.68;;
13347;SDS011;6743;49.934;9.138;2022-07-23T10:42:45;9.43;;;6.82;;
13347;SDS011;6743;49.934;9.138;2022-07-23T10:45:22;7.68;;;6.97;;
13347;SDS011;6743;49.934;9.138;2022-07-23T10:47:53;6.82;;;6.30;;
13347;SDS011;6743;49.934;9.138;2022-07-23T10:50:21;6.35;;;5.82;;
13347;SDS011;6743;49.934;9.138;2022-07-23T10:55:42;7.00;;;6.30;;
13347;SDS011;6743;49.934;9.138;2022-07-23T10:58:17;6.37;;;5.78;;
13347;SDS011;6743;49.934;9.138;2022-07-23T11:00:48;8.10;;;6.80;;
13347;SDS011;6743;49.934;9.138;2022-07-23T11:03:34;7.12;;;6.35;;
13347;SDS011;6743;49.934;9.138;2022-07-23T11:06:03;7.00;;;6.22;;
13347;SDS011;6743;49.934;9.138;2022-07-23T11:08:30;6.95;;;6.35;;
13347;SDS011;6743;49.934;9.138;2022-07-23T11:11:08;6.68;;;6.07;;
13347;SDS011;6743;49.934;9.138;2022-07-23T11:13:37;7.32;;;6.62;;
13347;SDS011;6743;49.934;9.138;2022-07-23T11:16:11;7.10;;;6.50;;
13347;SDS011;6743;49.934;9.138;2022-07-23T11:21:44;6.60;;;6.03;;
13347;SDS011;6743;49.934;9.138;2022-07-23T11:24:17;8.32;;;6.55;;
13347;SDS011;6743;49.934;9.138;2022-07-23T11:26:46;6.43;;;5.87;;
13347;SDS011;6743;49.934;9.138;2022-07-23T11:32:18;7.07;;;6.37;;
13347;SDS011;6743;49.934;9.138;2022-07-23T11:34:58;6.65;;;6.05;;
13347;SDS011;6743;49.934;9.138;2022-07-23T11:37:29;6.55;;;6.00;;
13347;SDS011;6743;49.934;9.138;2022-07-23T11:40:03;7.05;;;6.25;;
13347;SDS011;6743;49.934;9.138;2022-07-23T11:42:33;6.65;;;6.05;;
13347;SDS011;6743;49.934;9.138;2022-07-23T11:45:00;6.75;;;6.15;;
13347;SDS011;6743;49.934;9.138;2022-07-23T11:47:27;6.22;;;5.72;;
13347;SDS011;6743;49.934;9.138;2022-07-23T11:49:53;6.93;;;6.32;;
13347;SDS011;6743;49.934;9.138;2022-07-23T11:52:20;6.93;;;6.22;;
13347;SDS011;6743;49.934;9.138;2022-07-23T11:54:47;6.47;;;5.87;;
13347;SDS011;6743;49.934;9.138;2022-07-23T11:57:14;6.45;;;5.95;;
13347;SDS011;6743;49.934;9.138;2022-07-23T11:59:42;6.47;;;5.87;;
13347;SDS011;6743;49.934;9.138;2022-07-23T12:02:09;7.03;;;6.22;;
13347;SDS011;6743;49.934;9.138;2022-07-23T12:04:38;6.40;;;5.90;;
13347;SDS011;6743;49.934;9.138;2022-07-23T12:07:04;6.37;;;5.87;;
13347;SDS011;6743;49.934;9.138;2022-07-23T12:09:48;5.72;;;5.32;;
13347;SDS011;6743;49.934;9.138;2022-07-23T12:12:15;7.10;;;6.00;;
13347;SDS011;6743;49.934;9.138;2022-07-23T12:14:47;6.40;;;5.82;;
13347;SDS011;6743;49.934;9.138;2022-07-23T12:17:14;8.65;;;5.57;;
13347;SDS011;6743;49.934;9.138;2022-07-23T12:19:40;6.28;;;5.75;;
13347;SDS011;6743;49.934;9.138;2022-07-23T12:22:07;5.95;;;5.50;;
13347;SDS011;6743;49.934;9.138;2022-07-23T12:27:24;5.90;;;5.43;;
13347;SDS011;6743;49.934;9.138;2022-07-23T12:29:52;6.57;;;5.97;;
13347;SDS011;6743;49.934;9.138;2022-07-23T12:32:18;5.68;;;5.28;;
13347;SDS011;6743;49.934;9.138;2022-07-23T12:34:45;5.93;;;5.32;;
13347;SDS011;6743;49.934;9.138;2022-07-23T12:37:24;5.90;;;5.50;;
13347;SDS011;6743;49.934;9.138;2022-07-23T12:39:52;6.00;;;5.57;;
13347;SDS011;6743;49.934;9.138;2022-07-23T12:42:18;6.62;;;5.90;;
13347;SDS011;6743;49.934;9.138;2022-07-23T12:47:29;5.97;;;5.47;;
13347;SDS011;6743;49.934;9.138;2022-07-23T12:49:55;6.22;;;5.70;;
13347;SDS011;6743;49.934;9.138;2022-07-23T12:52:22;5.87;;;5.47;;
13347;SDS011;6743;49.934;9.138;2022-07-23T12:54:48;6.12;;;5.45;;
13347;SDS011;6743;49.934;9.138;2022-07-23T12:57:14;5.62;;;5.12;;
13347;SDS011;6743;49.934;9.138;2022-07-23T12:59:40;6.62;;;5.65;;
13347;SDS011;6743;49.934;9.138;2022-07-23T13:02:08;6.00;;;5.50;;
13347;SDS011;6743;49.934;9.138;2022-07-23T13:04:34;6.43;;;5.75;;
13347;SDS011;6743;49.934;9.138;2022-07-23T13:07:00;5.50;;;4.97;;
13347;SDS011;6743;49.934;9.138;2022-07-23T13:09:28;6.18;;;5.68;;
13347;SDS011;6743;49.934;9.138;2022-07-23T13:11:55;5.80;;;5.07;;
13347;SDS011;6743;49.934;9.138;2022-07-23T13:14:22;5.32;;;4.93;;
13347;SDS011;6743;49.934;9.138;2022-07-23T13:16:50;5.22;;;4.80;;
13347;SDS011;6743;49.934;9.138;2022-07-23T13:19:18;5.60;;;5.20;;
13347;SDS011;6743;49.934;9.138;2022-07-23T13:21:47;5.32;;;4.90;;
13347;SDS011;6743;49.934;9.138;2022-07-23T13:24:14;5.28;;;4.87;;
13347;SDS011;6743;49.934;9.138;2022-07-23T13:26:40;5.25;;;4.85;;
13347;SDS011;6743;49.934;9.138;2022-07-23T13:29:06;5.65;;;5.18;;
13347;SDS011;6743;49.934;9.138;2022-07-23T13:31:33;5.28;;;4.97;;
13347;SDS011;6743;49.934;9.138;2022-07-23T13:33:59;5.22;;;4.82;;
13347;SDS011;6743;49.934;9.138;2022-07-23T13:36:25;5.60;;;5.20;;
13347;SDS011;6743;49.934;9.138;2022-07-23T13:38:51;5.93;;;5.30;;
13347;SDS011;6743;49.934;9.138;2022-07-23T13:41:18;5.30;;;4.80;;
13347;SDS011;6743;49.934;9.138;2022-07-23T13:43:44;6.95;;;5.82;;
13347;SDS011;6743;49.934;9.138;2022-07-23T13:46:10;5.53;;;5.12;;
13347;SDS011;6743;49.934;9.138;2022-07-23T13:48:36;6.50;;;5.90;;
13347;SDS011;6743;49.934;9.138;2022-07-23T13:51:02;5.85;;;5.35;;
13347;SDS011;6743;49.934;9.138;2022-07-23T13:53:29;6.28;;;5.70;;
13347;SDS011;6743;49.934;9.138;2022-07-23T13:55:55;6.15;;;5.55;;
13347;SDS011;6743;49.934;9.138;2022-07-23T13:58:22;5.43;;;5.00;;
13347;SDS011;6743;49.934;9.138;2022-07-23T14:00:49;5.40;;;4.90;;
13347;SDS011;6743;49.934;9.138;2022-07-23T14:03:17;5.55;;;5.05;;
13347;SDS011;6743;49.934;9.138;2022-07-23T14:05:43;6.75;;;5.37;;
13347;SDS011;6743;49.934;9.138;2022-07-23T14:08:09;6.10;;;5.55;;
13347;SDS011;6743;49.934;9.138;2022-07-23T14:10:36;5.35;;;4.93;;
13347;SDS011;6743;49.934;9.138;2022-07-23T14:13:02;6.28;;;5.78;;
13347;SDS011;6743;49.934;9.138;2022-07-23T14:15:29;6.20;;;5.70;;
13347;SDS011;6743;49.934;9.138;2022-07-23T14:17:56;5.62;;;5.20;;
13347;SDS011;6743;49.934;9.138;2022-07-23T14:20:23;5.85;;;5.15;;
13347;SDS011;6743;49.934;9.138;2022-07-23T14:22:50;6.03;;;5.45;;
13347;SDS011;6743;49.934;9.138;2022-07-23T14:25:17;5.97;;;5.40;;
13347;SDS011;6743;49.934;9.138;2022-07-23T14:27:44;6.35;;;5.75;;
13347;SDS011;6743;49.934;9.138;2022-07-23T14:30:10;6.40;;;5.30;;
13347;SDS011;6743;49.934;9.138;2022-07-23T14:32:38;6.57;;;5.97;;
13347;SDS011;6743;49.934;9.138;2022-07-23T14:35:04;5.65;;;5.15;;
13347;SDS011;6743;49.934;9.138;2022-07-23T14:37:31;4.95;;;4.62;;
13347;SDS011;6743;49.934;9.138;2022-07-23T14:39:58;5.75;;;5.25;;
13347;SDS011;6743;49.934;9.138;2022-07-23T14:42:24;6.00;;;5.50;;
13347;SDS011;6743;49.934;9.138;2022-07-23T14:44:51;5.32;;;4.93;;
13347;SDS011;6743;49.934;9.138;2022-07-23T14:47:17;5.53;;;5.03;;
13347;SDS011;6743;49.934;9.138;2022-07-23T14:49:43;5.22;;;4.78;;
13347;SDS011;6743;49.934;9.138;2022-07-23T14:52:09;5.68;;;5.07;;
13347;SDS011;6743;49.934;9.138;2022-07-23T14:54:35;5.35;;;4.95;;
13347;SDS011;6743;49.934;9.138;2022-07-23T14:57:02;5.43;;;5.03;;
13347;SDS011;6743;49.934;9.138;2022-07-23T14:59:28;5.62;;;5.12;;
13347;SDS011;6743;49.934;9.138;2022-07-23T15:01:56;5.57;;;5.12;;
13347;SDS011;6743;49.934;9.138;2022-07-23T15:04:22;4.78;;;4.37;;
13347;SDS011;6743;49.934;9.138;2022-07-23T15:06:48;5.93;;;5.40;;
13347;SDS011;6743;49.934;9.138;2022-07-23T15:09:14;5.60;;;5.10;;
13347;SDS011;6743;49.934;9.138;2022-07-23T15:11:40;5.18;;;4.68;;
13347;SDS011;6743;49.934;9.138;2022-07-23T15:14:07;6.10;;;5.50;;